M I D A S
Marine Information and Data Acquisition System
Tripno 1284 of the Zeeleeuw from 2007-06-11 04:43:44 to 2007-06-11 13:47:03
Back to CruiseResearch ActivitiesStationsMapUnderway DataData graphs

EquipmentUnitsComment
TimeDGPSUTC
LatitudeDGPSDM.mWGS84
LongitudeDGPSDM.mWGS84
HeadingGyrodeg 
SOGDGPSknotsSpeed over ground
COGDGPSdegCourse over ground
DepthEcho soundermeters200 kHz
Missing or incorrect values are displayed as -999
Navigation data collected by the RV Zeeleeuw from 2007-06-11 04:46:55 to 2007-06-11 13:58:25
Time Latitude Longitude Heading SOG COG Depth
2007-06-11 04:48:03 51°13.6 2°56.061 117 4.5 295 -999
2007-06-11 04:49:03 51°13.643 2°55.931 121.2 6 299 -999
2007-06-11 04:50:03 51°13.679 2°55.805 110.1 4.1 289 10.2
2007-06-11 04:51:03 51°13.686 2°55.743 86.3 0.7 264 -999
2007-06-11 04:52:03 51°13.699 2°55.751 32.6 1.7 19 11.3
2007-06-11 04:53:01 51°13.736 2°55.738 334 3.7 327 11.3
2007-06-11 04:53:59 51°13.803 2°55.667 334.5 5.8 331 10.6
2007-06-11 04:55:00 51°13.899 2°55.599 341.4 6.4 337 10.8
2007-06-11 04:56:00 51°14.004 2°55.53 342.1 7.7 338 -999
2007-06-11 04:57:00 51°14.133 2°55.43 335.1 9.4 331 -999
2007-06-11 04:58:01 51°14.263 2°55.262 319.1 10.5 313 10.7
2007-06-11 04:58:59 51°14.377 2°55.038 311.7 11.8 308 10.6
2007-06-11 04:59:59 51°14.523 2°54.8 322 12.9 316 9.3
2007-06-11 05:00:59 51°14.691 2°54.588 331 13 325 9.3
2007-06-11 05:01:59 51°14.863 2°54.377 328.2 13 322 9
2007-06-11 05:02:59 51°15.034 2°54.174 331.1 12.8 324 8.1
2007-06-11 05:04:00 51°15.214 2°53.975 334.6 12.9 327 8.9
2007-06-11 05:04:59 51°15.389 2°53.783 332.2 13 325 9.5
2007-06-11 05:05:59 51°15.572 2°53.603 339.7 12.8 332 10.1
2007-06-11 05:06:59 51°15.761 2°53.444 339.6 12.9 331 10.6
2007-06-11 05:07:59 51°15.95 2°53.284 341.7 12.8 333 11.1
2007-06-11 05:08:59 51°16.138 2°53.127 340.9 12.7 334 11.3
2007-06-11 05:09:59 51°16.329 2°52.979 343.7 12.7 337 11.6
2007-06-11 05:11:00 51°16.526 2°52.841 343.1 12.7 337 11.2
2007-06-11 05:11:59 51°16.716 2°52.71 343.2 12.6 336 10.2
2007-06-11 05:13:00 51°16.913 2°52.589 349.1 12.4 342 9.6
2007-06-11 05:13:59 51°17.107 2°52.487 349.1 12.4 342 9.4
2007-06-11 05:15:00 51°17.305 2°52.375 348.3 12.5 341 10
2007-06-11 05:15:59 51°17.499 2°52.269 348.8 12.4 341 10.3
2007-06-11 05:16:59 51°17.694 2°52.161 348.7 12.4 341 10.1
2007-06-11 05:17:59 51°17.89 2°52.057 348.6 12.5 341 10.3
2007-06-11 05:18:59 51°18.087 2°51.953 348.9 12.5 342 10.6
2007-06-11 05:20:00 51°18.289 2°51.849 349.7 12.6 342 11.2
2007-06-11 05:20:59 51°18.485 2°51.747 349.2 12.6 342 12.2
2007-06-11 05:22:00 51°18.687 2°51.64 349.1 12.6 341 13.3
2007-06-11 05:22:59 51°18.882 2°51.535 349.1 12.5 341 14.4
2007-06-11 05:24:00 51°19.083 2°51.425 349.3 12.5 342 15
2007-06-11 05:24:59 51°19.278 2°51.32 349.4 12.6 342 15.1
2007-06-11 05:25:59 51°19.478 2°51.216 352.3 12.6 345 14.8
2007-06-11 05:26:59 51°19.681 2°51.138 353.8 12.6 347 13.9
2007-06-11 05:27:59 51°19.884 2°51.062 353.8 12.6 347 12.5
2007-06-11 05:28:59 51°20.088 2°50.98 354 12.6 346 13.6
2007-06-11 05:29:59 51°20.289 2°50.894 353.6 12.6 345 14
2007-06-11 05:30:59 51°20.493 2°50.807 352.9 12.7 344 16.3
2007-06-11 05:31:59 51°20.698 2°50.715 353 12.8 345 19.4
2007-06-11 05:32:59 51°20.906 2°50.645 357.4 12.8 348 21.9
2007-06-11 05:34:00 51°21.119 2°50.575 356.2 12.9 346 23.1
2007-06-11 05:35:00 51°21.313 2°50.426 338 13.2 328 23.3
2007-06-11 05:36:00 51°21.482 2°50.198 324.2 13.5 315 22.5
2007-06-11 05:37:00 51°21.639 2°49.949 322.9 13.1 316 21.9
2007-06-11 05:38:00 51°21.794 2°49.706 322.5 13.1 315 22.8
2007-06-11 05:39:00 51°21.952 2°49.469 323.9 13 317 23.2
2007-06-11 05:40:00 51°22.105 2°49.225 320.1 13 314 23.4
2007-06-11 05:41:00 51°22.256 2°48.978 320.5 13 314 22.7
2007-06-11 05:42:00 51°22.405 2°48.731 320.9 12.9 314 23.5
2007-06-11 05:43:00 51°22.553 2°48.485 321.4 12.7 314 17.4
2007-06-11 05:44:00 51°22.684 2°48.215 314.2 13 307 18.5
2007-06-11 05:45:00 51°22.814 2°47.939 315 13 307 18.6
2007-06-11 05:46:00 51°22.936 2°47.648 310.4 13.2 302 20.3
2007-06-11 05:47:00 51°23.034 2°47.333 295.4 13.4 287 21.1
2007-06-11 05:48:00 51°23.094 2°46.987 292.5 13.5 285 21.4
2007-06-11 05:49:00 51°23.158 2°46.644 292.9 13.4 286 23.7
2007-06-11 05:50:00 51°23.225 2°46.305 293.6 13.3 287 23.4
2007-06-11 05:51:00 51°23.251 2°45.95 279.2 13.6 273 26
2007-06-11 05:52:00 51°23.266 2°45.587 279.5 13.8 274 27.8
2007-06-11 05:53:00 51°23.311 2°45.231 290.6 13.6 283 26.6
2007-06-11 05:54:00 51°23.363 2°44.877 290.2 13.7 283 27.3
2007-06-11 05:55:00 51°23.417 2°44.522 290.4 13.8 284 27.4
2007-06-11 05:56:00 51°23.487 2°44.188 312.5 12.4 308 27.4
2007-06-11 05:57:00 51°23.611 2°43.964 336.1 8.9 331 24.4
2007-06-11 05:58:00 51°23.711 2°43.971 37.3 5.8 35 26.9
2007-06-11 05:59:00 51°23.775 2°44.088 47.3 5.5 41 26.8
2007-06-11 06:00:00 51°23.832 2°44.16 50.3 3.5 46 25.6
2007-06-11 06:01:00 51°23.862 2°44.219 51 2.4 42 28.1
2007-06-11 06:02:00 51°23.89 2°44.262 64.6 2.4 59 27.6
2007-06-11 06:03:00 51°23.921 2°44.302 39.1 2.6 31 26.5
2007-06-11 06:04:00 51°23.943 2°44.343 63 1.7 51 26.7
2007-06-11 06:05:00 51°23.964 2°44.364 29.6 1.4 10 28.2
2007-06-11 06:06:00 51°23.985 2°44.359 8.2 1.2 340 27.9
2007-06-11 06:07:00 51°24.001 2°44.347 6.7 1 328 28
2007-06-11 06:08:00 51°24.012 2°44.334 12.9 0.7 324 28.3
2007-06-11 06:09:00 51°24.022 2°44.322 11.7 0.9 337 27.8
2007-06-11 06:10:00 51°24.04 2°44.301 335.9 1.7 314 27.2
2007-06-11 06:11:00 51°24.054 2°44.247 285.8 3.6 274 27.4
2007-06-11 06:12:00 51°24.013 2°44.165 199.5 4 200 24.9
2007-06-11 06:13:00 51°23.965 2°44.166 154.9 2.3 165 26.8
2007-06-11 06:14:00 51°23.943 2°44.178 131.4 1 154 27.1
2007-06-11 06:15:00 51°23.934 2°44.181 116 0.4 187 27.5
2007-06-11 06:16:00 51°23.928 2°44.179 106.9 0.4 200 27.1
2007-06-11 06:17:00 51°23.922 2°44.177 98.9 0.3 198 28
2007-06-11 06:18:00 51°23.917 2°44.174 94.4 0.3 198 27.5
2007-06-11 06:19:00 51°23.912 2°44.171 93.2 0.3 201 28.2
2007-06-11 06:20:00 51°23.907 2°44.169 91.2 0.3 198 28.1
2007-06-11 06:21:00 51°23.902 2°44.165 93.6 0.3 202 28.4
2007-06-11 06:22:00 51°23.897 2°44.162 94 0.3 199 28.2
2007-06-11 06:23:00 51°23.892 2°44.159 94.6 0.3 198 28.3
2007-06-11 06:24:01 51°23.888 2°44.157 96.5 0.3 196 27.9
2007-06-11 06:25:00 51°23.883 2°44.154 99.2 0.3 198 28.3
2007-06-11 06:26:00 51°23.879 2°44.152 98.4 0.3 186 27.9
2007-06-11 06:27:00 51°23.875 2°44.151 96.6 0.3 191 27.7
2007-06-11 06:28:00 51°23.871 2°44.15 94.6 0.2 189 28
2007-06-11 06:29:00 51°23.868 2°44.149 90.3 0.2 185 27.6
2007-06-11 06:30:00 51°23.864 2°44.149 87.8 0.2 182 27.2
2007-06-11 06:31:00 51°23.862 2°44.148 88.6 0.4 179 27
2007-06-11 06:32:00 51°23.859 2°44.148 90.2 0.1 184 26.3
2007-06-11 06:33:00 51°23.857 2°44.15 90.3 0.6 104 25.9
2007-06-11 06:34:00 51°23.869 2°44.193 60.4 2.5 59 28.6
2007-06-11 06:35:00 51°23.883 2°44.224 52.8 0.1 216 28.4
2007-06-11 06:36:00 51°23.88 2°44.218 58.2 0.2 246 5.2
2007-06-11 06:37:00 51°23.877 2°44.214 62.8 0.2 228 28.7
2007-06-11 06:38:00 51°23.876 2°44.21 70.8 0.1 224 28.3
2007-06-11 06:39:00 51°23.874 2°44.209 80.3 0.1 196 28.3
2007-06-11 06:40:00 51°23.874 2°44.208 90.5 0.1 201 28.5
2007-06-11 06:41:00 51°23.873 2°44.208 98.7 -999 89 28.6
2007-06-11 06:42:00 51°23.874 2°44.209 104.5 -999 122 28.7
2007-06-11 06:43:00 51°23.873 2°44.21 109.5 0.1 145 28.7
2007-06-11 06:44:00 51°23.873 2°44.212 111.6 0.1 98 28.7
2007-06-11 06:45:00 51°23.873 2°44.215 113.1 0.1 72 28.7
2007-06-11 06:46:00 51°23.873 2°44.219 113 0.2 84 28.7
2007-06-11 06:47:00 51°23.874 2°44.223 112.2 0.2 77 28.9
2007-06-11 06:48:00 51°23.875 2°44.229 109.6 0.3 63 28.5
2007-06-11 06:49:00 51°23.876 2°44.236 106.3 0.3 72 28.7
2007-06-11 06:50:00 51°23.875 2°44.264 103.2 2.1 96 28.3
2007-06-11 06:51:00 51°23.88 2°44.336 74.6 2.5 69 28.3
2007-06-11 06:52:00 51°23.896 2°44.385 64.8 1.5 58 27.2
2007-06-11 06:53:00 51°23.91 2°44.415 56.4 1.1 55 28
2007-06-11 06:54:00 51°23.919 2°44.436 52.9 0.9 58 26.6
2007-06-11 06:55:00 51°23.928 2°44.457 53.7 0.9 58 28.1
2007-06-11 06:56:00 51°23.934 2°44.476 54.5 0.8 57 28.3
2007-06-11 06:57:00 51°23.942 2°44.493 52.4 0.8 55 28.4
2007-06-11 06:58:00 51°23.949 2°44.509 51 0.8 52 28.4
2007-06-11 06:59:00 51°23.957 2°44.525 52.9 0.7 55 28.3
2007-06-11 07:00:00 51°23.963 2°44.541 55.8 0.7 57 27.8
2007-06-11 07:01:00 51°23.97 2°44.558 60.2 0.8 61 26.5
2007-06-11 07:02:00 51°23.977 2°44.579 57.8 1.6 52 28.5
2007-06-11 07:03:00 51°24.016 2°44.609 359.3 3.4 359 27.7
2007-06-11 07:04:00 51°24.057 2°44.554 280.6 3.4 282 28.1
2007-06-11 07:05:00 51°24.037 2°44.486 223.4 2.8 223 28.4
2007-06-11 07:06:00 51°24.003 2°44.433 229.9 2.5 228 27
2007-06-11 07:07:00 51°23.991 2°44.401 248.5 0.8 260 28.2
2007-06-11 07:08:00 51°23.992 2°44.383 260.3 0.6 291 28.5
2007-06-11 07:09:00 51°23.997 2°44.371 270.2 0.5 319 28.9
2007-06-11 07:10:00 51°24.005 2°44.364 280 0.6 341 29.1
2007-06-11 07:11:00 51°24.014 2°44.361 285.6 0.6 350 28.9
2007-06-11 07:12:00 51°24.022 2°44.36 288.8 0.5 357 28.6
2007-06-11 07:13:00 51°24.031 2°44.353 279.3 0.9 308 28.3
2007-06-11 07:14:00 51°24.026 2°44.321 223.7 2.3 215 28.8
2007-06-11 07:15:00 51°23.991 2°44.326 169.8 2.3 147 27.8
2007-06-11 07:16:00 51°23.972 2°44.369 139.3 1.8 114 29.4
2007-06-11 07:17:00 51°23.964 2°44.409 133.3 1.5 103 28.3
2007-06-11 07:18:00 51°23.961 2°44.446 130.5 1.3 93 28.1
2007-06-11 07:19:00 51°23.962 2°44.478 130.4 1.2 90 28.3
2007-06-11 07:20:00 51°23.962 2°44.508 128.9 1.1 84 28.3
2007-06-11 07:21:00 51°23.965 2°44.535 126.1 1 79 27.7
2007-06-11 07:22:00 51°23.97 2°44.562 123.2 1 73 26.4
2007-06-11 07:23:00 51°23.975 2°44.586 121 0.9 72 28.1
2007-06-11 07:24:00 51°23.98 2°44.609 117.6 0.9 68 28.1
2007-06-11 07:25:00 51°23.986 2°44.631 115.6 0.9 67 28.6
2007-06-11 07:26:00 51°23.992 2°44.652 114 0.9 64 28.6
2007-06-11 07:27:00 51°23.998 2°44.674 109.6 0.9 63 27.5
2007-06-11 07:28:00 51°24.005 2°44.696 105.7 0.9 62 28.9
2007-06-11 07:29:00 51°24.013 2°44.719 101.1 1.2 67 29
2007-06-11 07:30:00 51°24.031 2°44.78 62.8 3.7 53 27.9
2007-06-11 07:31:00 51°24.089 2°44.822 351.7 3.9 355 28.5
2007-06-11 07:32:00 51°24.129 2°44.767 273.6 2.9 279 28.2
2007-06-11 07:33:00 51°24.099 2°44.688 229.8 5.6 227 28.8
2007-06-11 07:34:00 51°24.046 2°44.584 236.3 4.6 236 28.5
2007-06-11 07:35:00 51°24.003 2°44.491 227.5 4.2 223 28.3
2007-06-11 07:36:00 51°23.965 2°44.444 221.3 1.8 214 27.9
2007-06-11 07:37:00 51°23.944 2°44.424 219.6 1.2 205 28.5
2007-06-11 07:38:00 51°23.931 2°44.417 222.3 0.2 148 27.7
2007-06-11 07:39:00 51°23.932 2°44.419 245.3 0.2 26 28.1
2007-06-11 07:40:00 51°23.938 2°44.423 258.8 0.5 30 28.9
2007-06-11 07:41:00 51°23.946 2°44.431 270.7 0.6 33 28.3
2007-06-11 07:42:00 51°23.955 2°44.442 279.8 0.8 39 28.1
2007-06-11 07:43:00 51°23.966 2°44.456 287.8 0.8 45 28
2007-06-11 07:44:00 51°23.975 2°44.47 293.9 0.8 44 28.1
2007-06-11 07:45:00 51°23.985 2°44.487 296.2 0.9 44 26.3
2007-06-11 07:46:00 51°23.994 2°44.505 295.4 0.8 53 28.3
2007-06-11 07:47:00 51°24.002 2°44.523 291.4 0.9 58 29.3
2007-06-11 07:48:00 51°24.009 2°44.532 274.2 0.7 316 29.4
2007-06-11 07:49:00 51°24.004 2°44.504 229.3 1.8 228 28.8
2007-06-11 07:50:00 51°23.976 2°44.458 227.8 2.8 226 28.3
2007-06-11 07:51:00 51°23.95 2°44.389 241.9 3.2 243 29.3
2007-06-11 07:52:00 51°23.927 2°44.33 231.2 2 232 29.8
2007-06-11 07:53:00 51°23.921 2°44.3 256.2 0.6 331 29.1
2007-06-11 07:54:00 51°23.932 2°44.305 285.1 0.9 27 26.8
2007-06-11 07:55:00 51°23.946 2°44.317 298.9 0.9 35 26.3
2007-06-11 07:56:00 51°23.958 2°44.333 304.1 1 48 27.5
2007-06-11 07:57:00 51°23.967 2°44.355 303 1 63 29.6
2007-06-11 07:58:00 51°23.974 2°44.383 293.8 1.2 70 29
2007-06-11 07:59:00 51°23.983 2°44.399 270 0.5 6 28.9
2007-06-11 08:00:01 51°23.985 2°44.389 237.4 0.8 250 29.3
2007-06-11 08:01:00 51°23.975 2°44.36 234.1 1.9 235 29.7
2007-06-11 08:02:00 51°23.95 2°44.313 228.3 2.3 225 26.9
2007-06-11 08:03:00 51°23.926 2°44.287 214 1.2 192 28.4
2007-06-11 08:04:00 51°23.918 2°44.3 188.1 0.9 97 29.9
2007-06-11 08:05:00 51°23.918 2°44.325 179.9 1 82 29.7
2007-06-11 08:06:00 51°23.922 2°44.351 177.7 1 72 29.6
2007-06-11 08:07:00 51°23.928 2°44.379 171.4 1.1 70 28.6
2007-06-11 08:08:00 51°23.93 2°44.41 168.7 1.3 112 28
2007-06-11 08:09:00 51°23.915 2°44.429 211.3 0.9 183 28.4
2007-06-11 08:10:00 51°23.911 2°44.409 259.2 1.3 287 29.2
2007-06-11 08:11:01 51°23.917 2°44.369 249.3 1.7 262 29.3
2007-06-11 08:12:00 51°23.915 2°44.32 267.1 1.9 291 29.2
2007-06-11 08:13:00 51°23.931 2°44.298 278.3 1 353 27.6
2007-06-11 08:14:00 51°23.944 2°44.29 259.1 0.6 319 25.7
2007-06-11 08:15:00 51°23.944 2°44.28 227.9 0.6 219 25.6
2007-06-11 08:16:00 51°23.934 2°44.269 231.1 0.5 214 28.5
2007-06-11 08:17:00 51°23.932 2°44.264 242.3 0.2 302 27.9
2007-06-11 08:18:00 51°23.936 2°44.265 249.1 0.3 24 27.9
2007-06-11 08:19:00 51°23.944 2°44.271 261.7 0.7 27 25.3
2007-06-11 08:20:01 51°23.956 2°44.283 275.4 0.9 38 27.9
2007-06-11 08:21:00 51°23.969 2°44.289 275.1 0.8 337 28.4
2007-06-11 08:22:00 51°23.968 2°44.273 225.6 1 205 28.4
2007-06-11 08:23:00 51°23.941 2°44.26 215.2 2.1 198 26.7
2007-06-11 08:24:00 51°23.911 2°44.266 188.6 1.8 151 29.1
2007-06-11 08:25:00 51°23.895 2°44.295 174.9 1.3 99 29
2007-06-11 08:26:00 51°23.905 2°44.325 159.5 1.4 47 28.8
2007-06-11 08:27:00 51°23.922 2°44.35 164.5 1.3 44 29.7
2007-06-11 08:28:00 51°23.936 2°44.377 172 1.3 57 28.5
2007-06-11 08:29:01 51°23.948 2°44.406 177.7 1.3 61 29.4
2007-06-11 08:30:00 51°23.956 2°44.436 179.6 1.3 97 28.2
2007-06-11 08:31:00 51°23.891 2°44.472 183.6 7.7 174 27.8
2007-06-11 08:32:00 51°23.73 2°44.456 197.1 10.5 194 29.1
2007-06-11 08:33:00 51°23.581 2°44.301 232 11.3 232 29.4
2007-06-11 08:34:00 51°23.525 2°44.015 258.7 11.4 258 26.9
2007-06-11 08:35:00 51°23.485 2°43.716 257.2 11.5 257 28
2007-06-11 08:36:00 51°23.442 2°43.419 256 11.5 257 28.7
2007-06-11 08:37:00 51°23.393 2°43.123 254.6 11.5 255 28.5
2007-06-11 08:38:01 51°23.341 2°42.824 253.8 11.5 254 29.2
2007-06-11 08:39:00 51°23.29 2°42.532 254.3 11.6 254 28.9
2007-06-11 08:40:00 51°23.237 2°42.236 254.2 11.6 254 29.9
2007-06-11 08:41:00 51°23.184 2°41.94 253.6 11.6 254 28.6
2007-06-11 08:42:00 51°23.13 2°41.643 254 11.7 255 29.2
2007-06-11 08:43:00 51°23.074 2°41.347 253.5 11.7 253 30.9
2007-06-11 08:44:00 51°23.018 2°41.05 253.1 11.7 254 31.7
2007-06-11 08:45:00 51°22.964 2°40.751 253.9 11.7 254 31.3
2007-06-11 08:46:00 51°22.869 2°40.491 226.8 11.3 222 31.3
2007-06-11 08:47:00 51°22.696 2°40.359 207.5 11.7 203 31.5
2007-06-11 08:48:00 51°22.516 2°40.233 209.2 11.8 205 31.3
2007-06-11 08:49:00 51°22.338 2°40.103 209.9 11.7 204 30.2
2007-06-11 08:50:00 51°22.161 2°39.966 209.2 11.8 205 31.5
2007-06-11 08:51:00 51°21.985 2°39.827 210.8 11.7 207 30.5
2007-06-11 08:52:00 51°21.809 2°39.69 210.4 11.7 205 29.2
2007-06-11 08:53:00 51°21.634 2°39.553 211.5 11.7 205 29
2007-06-11 08:54:00 51°21.457 2°39.416 210.6 11.9 206 27.6
2007-06-11 08:55:00 51°21.279 2°39.277 211.6 12.1 207 27.7
2007-06-11 08:56:00 51°21.102 2°39.135 213.9 11.8 213 27.6
2007-06-11 08:57:00 51°20.946 2°38.941 223.2 12 220 26.7
2007-06-11 08:58:00 51°20.793 2°38.739 223.5 11.9 221 26.8
2007-06-11 08:59:00 51°20.639 2°38.54 223.4 11.8 219 25.3
2007-06-11 09:00:00 51°20.486 2°38.347 223.4 11.5 218 24
2007-06-11 09:01:00 51°20.335 2°38.156 223.1 11.6 219 25.9
2007-06-11 09:02:00 51°20.189 2°37.958 228.1 11.4 231 25
2007-06-11 09:03:00 51°20.182 2°37.695 281.3 8.8 281 25.2
2007-06-11 09:04:00 51°20.169 2°37.486 261 7.7 262 24.1
2007-06-11 09:05:00 51°20.124 2°37.296 246.8 7.7 248 24.7
2007-06-11 09:06:00 51°20.083 2°37.099 249 7.8 245 24.2
2007-06-11 09:07:00 51°20.028 2°36.963 237 4.2 236 24.5
2007-06-11 09:08:00 51°20.027 2°36.893 285 2.3 306 24.9
2007-06-11 09:09:00 51°20.053 2°36.868 300 1.4 347 25.2
2007-06-11 09:10:00 51°20.073 2°36.871 307.6 1.1 20 24.7
2007-06-11 09:11:00 51°20.09 2°36.888 317.1 1.2 36 23.5
2007-06-11 09:12:00 51°20.105 2°36.907 322.9 1.2 43 24.1
2007-06-11 09:13:00 51°20.12 2°36.929 325.3 1.2 47 24.1
2007-06-11 09:14:00 51°20.133 2°36.953 322.4 1.2 51 24.1
2007-06-11 09:15:00 51°20.144 2°36.978 316.1 1.2 50 22.3
2007-06-11 09:16:00 51°20.159 2°36.988 287.4 0.8 357 23.5
2007-06-11 09:17:00 51°20.165 2°36.978 249.6 0.8 253 23.6
2007-06-11 09:18:00 51°20.145 2°36.956 226.4 2 212 24.3
2007-06-11 09:19:00 51°20.119 2°36.923 234.7 1.9 225 24
2007-06-11 09:20:00 51°20.099 2°36.888 235.8 1.6 222 22.9
2007-06-11 09:21:00 51°20.079 2°36.886 200.2 1 135 25.3
2007-06-11 09:22:00 51°20.072 2°36.917 176.3 1.4 102 26.2
2007-06-11 09:23:00 51°20.07 2°36.954 159.5 1.5 92 25.9
2007-06-11 09:24:00 51°20.07 2°36.995 149.8 1.7 87 23.3
2007-06-11 09:25:00 51°20.072 2°37.039 141.9 1.7 84 23.3
2007-06-11 09:26:00 51°20.076 2°37.084 133 1.7 81 23.5
2007-06-11 09:27:00 51°20.08 2°37.13 124.2 1.8 82 24
2007-06-11 09:28:00 51°20.085 2°37.178 119.4 2.1 87 21.9
2007-06-11 09:29:00 51°20.068 2°37.242 169.3 2.8 142 24.3
2007-06-11 09:30:00 51°20.035 2°37.237 238 2 246 22.9
2007-06-11 09:31:00 51°20.059 2°37.17 295.9 4.1 308 24.3
2007-06-11 09:32:00 51°20.087 2°37.058 279.6 5 288 23.4
2007-06-11 09:33:00 51°20.103 2°36.947 257.8 2.9 257 26.3
2007-06-11 09:34:00 51°20.08 2°36.893 236.6 2 230 25.1
2007-06-11 09:35:00 51°20.069 2°36.871 245.1 0.4 234 24.7
2007-06-11 09:36:00 51°20.071 2°36.867 255.7 0.2 344 24.7
2007-06-11 09:37:00 51°20.076 2°36.871 260.7 0.5 34 24.4
2007-06-11 09:38:00 51°20.085 2°36.882 265.1 0.8 44 24.2
2007-06-11 09:39:00 51°20.095 2°36.897 269.6 0.9 47 21.5
2007-06-11 09:40:00 51°20.106 2°36.916 273.6 1 48 24.2
2007-06-11 09:41:00 51°20.118 2°36.939 275.5 1.1 53 24.2
2007-06-11 09:42:00 51°20.129 2°36.964 278.9 1.2 54 24.3
2007-06-11 09:43:00 51°20.142 2°36.99 284.1 1.2 48 22.7
2007-06-11 09:44:00 51°20.156 2°36.996 278.3 1.3 311 23.5
2007-06-11 09:45:00 51°20.147 2°36.959 231.8 2 221 23.6
2007-06-11 09:46:00 51°20.115 2°36.94 219.5 2 206 24.2
2007-06-11 09:47:00 51°20.097 2°36.916 238 0.9 227 23.7
2007-06-11 09:48:00 51°20.093 2°36.907 241.9 0.1 270 23.1
2007-06-11 09:49:00 51°20.097 2°36.911 253 0.4 34 23.2
2007-06-11 09:50:00 51°20.106 2°36.921 258.2 0.8 46 24.8
2007-06-11 09:51:00 51°20.116 2°36.939 261.7 1 48 24.3
2007-06-11 09:52:00 51°20.128 2°36.96 266.2 1.2 54 23.8
2007-06-11 09:53:00 51°20.139 2°36.986 268.7 1.3 56 22.2
2007-06-11 09:54:00 51°20.149 2°37.002 255.1 0.3 300 23.5
2007-06-11 09:55:00 51°20.132 2°36.952 247.5 2.9 251 23.6
2007-06-11 09:56:00 51°20.114 2°36.875 240.3 2.3 238 24.1
2007-06-11 09:57:00 51°20.095 2°36.848 220.7 1.1 188 24.5
2007-06-11 09:58:00 51°20.082 2°36.858 209.4 0.8 116 24.2
2007-06-11 09:59:00 51°20.081 2°36.882 201.5 1.1 85 24.7
2007-06-11 10:00:00 51°20.093 2°36.915 195.7 1.7 51 23.9
2007-06-11 10:01:00 51°20.109 2°36.948 196.1 1.6 54 24.2
2007-06-11 10:02:00 51°20.124 2°36.981 196.9 1.5 56 23.2
2007-06-11 10:03:00 51°20.136 2°37.013 197 1.3 61 23.5
2007-06-11 10:04:00 51°20.145 2°37.044 197.3 1.3 68 24
2007-06-11 10:05:00 51°20.154 2°37.075 198.8 1.3 71 21.4
2007-06-11 10:06:00 51°20.146 2°37.087 222.3 1.9 214 21.9
2007-06-11 10:07:00 51°20.113 2°37.006 241.6 4 241 22.3
2007-06-11 10:08:00 51°20.088 2°36.93 244.5 2.3 249 26.9
2007-06-11 10:09:00 51°20.088 2°36.892 264.7 0.9 313 23.1
2007-06-11 10:10:00 51°20.1 2°36.905 289.2 1.1 46 22.8
2007-06-11 10:11:00 51°20.112 2°36.927 293.9 1.1 53 24.1
2007-06-11 10:12:00 51°20.123 2°36.954 295.1 1.2 59 24
2007-06-11 10:13:00 51°20.135 2°36.966 276.1 1 313 23.5
2007-06-11 10:14:00 51°20.132 2°36.939 233 3.5 220 23.8
2007-06-11 10:15:00 51°20.023 2°36.893 198 9.6 191 24
2007-06-11 10:16:00 51°19.842 2°36.823 199.8 12.1 193 22.6
2007-06-11 10:17:00 51°19.65 2°36.73 201.1 12.1 196 22.1
2007-06-11 10:18:00 51°19.461 2°36.623 208.8 12 204 21
2007-06-11 10:19:00 51°19.279 2°36.492 209.7 12 204 22.3
2007-06-11 10:20:00 51°19.097 2°36.363 208.5 11.9 204 24
2007-06-11 10:21:00 51°18.914 2°36.239 208.5 11.9 204 23.4
2007-06-11 10:22:00 51°18.731 2°36.111 209.5 12.1 204 24.5
2007-06-11 10:23:00 51°18.545 2°35.981 207.9 12.1 204 26.3
2007-06-11 10:24:00 51°18.358 2°35.852 208.6 12.4 204 24.4
2007-06-11 10:25:00 51°18.17 2°35.717 208.4 12.5 204 21.4
2007-06-11 10:26:00 51°17.981 2°35.584 207.5 12.2 204 18.8
2007-06-11 10:27:00 51°17.794 2°35.454 209 12.2 203 18.9
2007-06-11 10:28:00 51°17.608 2°35.327 208.6 12.2 205 14.7
2007-06-11 10:29:00 51°17.422 2°35.195 207.9 12.1 204 14
2007-06-11 10:30:00 51°17.237 2°35.067 207.1 12.2 203 12.3
2007-06-11 10:31:00 51°17.051 2°34.938 208 12.1 203 12.5
2007-06-11 10:32:00 51°16.864 2°34.804 209 12.4 204 10.6
2007-06-11 10:33:00 51°16.676 2°34.666 209.7 12.5 206 11.9
2007-06-11 10:34:00 51°16.486 2°34.527 207.5 12.6 205 12.5
2007-06-11 10:35:00 51°16.295 2°34.383 208.5 12.6 207 13.4
2007-06-11 10:36:00 51°16.104 2°34.239 208.1 12.6 206 14
2007-06-11 10:37:00 51°15.914 2°34.093 207.5 12.8 203 16
2007-06-11 10:38:00 51°15.714 2°33.979 202.4 12.7 202 18.8
2007-06-11 10:39:00 51°15.525 2°33.829 211.5 12.6 209 22.4
2007-06-11 10:40:00 51°15.34 2°33.669 210.8 12.6 209 23.3
2007-06-11 10:41:00 51°15.155 2°33.509 210.6 12.7 208 24
2007-06-11 10:42:00 51°14.968 2°33.348 210.7 12.8 208 24.4
2007-06-11 10:43:00 51°14.782 2°33.189 210.8 12.7 208 25
2007-06-11 10:44:00 51°14.596 2°33.031 210.7 12.4 209 25
2007-06-11 10:45:00 51°14.415 2°32.865 216 12.7 216 25
2007-06-11 10:46:00 51°14.25 2°32.659 222.7 12.7 222 24.5
2007-06-11 10:47:00 51°14.092 2°32.433 224.1 12.7 222 24.6
2007-06-11 10:48:00 51°13.946 2°32.22 224.2 10.8 222 24.4
2007-06-11 10:49:00 51°13.814 2°32.034 224.1 10.5 223 24.4
2007-06-11 10:50:00 51°13.69 2°31.86 223.8 8.9 222 23.9
2007-06-11 10:51:00 51°13.593 2°31.711 235.1 7 234 24
2007-06-11 10:52:00 51°13.529 2°31.587 232 5.6 230 23.7
2007-06-11 10:53:00 51°13.474 2°31.476 231.7 5.2 228 23.3
2007-06-11 10:54:00 51°13.416 2°31.377 229.2 5.1 225 23
2007-06-11 10:55:00 51°13.363 2°31.275 237.7 4.7 235 22.5
2007-06-11 10:56:00 51°13.329 2°31.178 245 3.6 241 21.8
2007-06-11 10:57:00 51°13.294 2°31.117 227.5 2.7 225 23.8
2007-06-11 10:58:00 51°13.27 2°31.072 234.2 2 227 22.3
2007-06-11 10:59:00 51°13.243 2°31.048 202.1 1.8 194 22.2
2007-06-11 11:00:00 51°13.21 2°31.058 156.5 2.5 148 22.1
2007-06-11 11:01:00 51°13.188 2°31.117 103.3 2.8 100 23.2
2007-06-11 11:02:00 51°13.2 2°31.186 53.7 2.7 54 23
2007-06-11 11:03:00 51°13.236 2°31.22 7.5 2.3 10 23.6
2007-06-11 11:04:00 51°13.268 2°31.212 332.2 1.7 336 22.7
2007-06-11 11:05:00 51°13.286 2°31.192 312.7 1 315 22.7
2007-06-11 11:06:00 51°13.294 2°31.174 306.8 0.8 303 22.6
2007-06-11 11:07:00 51°13.298 2°31.161 303.5 0.3 282 22.5
2007-06-11 11:08:00 51°13.297 2°31.161 301.9 0.3 152 22.3
2007-06-11 11:09:00 51°13.291 2°31.17 291.9 0.5 129 22.3
2007-06-11 11:10:00 51°13.286 2°31.18 279.9 0.5 129 22.4
2007-06-11 11:11:00 51°13.282 2°31.189 268.3 0.3 123 22.5
2007-06-11 11:12:00 51°13.278 2°31.195 258.3 0.3 136 22.6
2007-06-11 11:13:00 51°13.275 2°31.2 249.6 0.3 148 22.5
2007-06-11 11:14:00 51°13.271 2°31.205 243.4 0.3 148 22.3
2007-06-11 11:15:00 51°13.267 2°31.208 239.4 0.3 154 22.9
2007-06-11 11:16:00 51°13.262 2°31.21 238.1 0.3 165 22.8
2007-06-11 11:17:00 51°13.257 2°31.211 238.1 0.3 186 23.1
2007-06-11 11:18:00 51°13.252 2°31.211 241 0.3 193 22.5
2007-06-11 11:19:00 51°13.247 2°31.209 244.6 0.3 196 23.2
2007-06-11 11:20:00 51°13.242 2°31.206 247.9 0.3 208 22.8
2007-06-11 11:21:00 51°13.237 2°31.203 251.9 0.4 197 22.5
2007-06-11 11:22:00 51°13.232 2°31.199 256.6 0.3 219 23.1
2007-06-11 11:23:00 51°13.227 2°31.194 259.9 0.3 215 22.8
2007-06-11 11:24:00 51°13.222 2°31.188 262.8 0.4 225 22.8
2007-06-11 11:25:00 51°13.218 2°31.183 265.6 0.3 217 22.7
2007-06-11 11:26:00 51°13.213 2°31.177 267.4 0.2 248 23
2007-06-11 11:27:00 51°13.209 2°31.171 268.7 0.3 221 22.5
2007-06-11 11:28:00 51°13.205 2°31.165 270 0.4 219 23
2007-06-11 11:29:00 51°13.201 2°31.16 271.5 0.3 214 22.7
2007-06-11 11:30:00 51°13.197 2°31.153 272.2 0.3 227 22.5
2007-06-11 11:31:00 51°13.193 2°31.148 272.5 0.4 222 23
2007-06-11 11:32:00 51°13.188 2°31.142 272.4 0.3 219 23
2007-06-11 11:33:00 51°13.183 2°31.136 272.5 0.3 218 22.7
2007-06-11 11:34:00 51°13.179 2°31.13 271.5 0.4 214 22.9
2007-06-11 11:35:00 51°13.174 2°31.124 269.4 0.4 211 22.6
2007-06-11 11:36:00 51°13.168 2°31.119 265.9 0.4 209 23
2007-06-11 11:37:00 51°13.162 2°31.113 264.2 0.4 211 22.3
2007-06-11 11:38:00 51°13.156 2°31.107 263.7 0.4 220 22.8
2007-06-11 11:39:00 51°13.149 2°31.099 266.1 0.5 218 22.3
2007-06-11 11:40:00 51°13.143 2°31.091 267.8 0.5 218 22.5
2007-06-11 11:41:00 51°13.137 2°31.083 268.6 0.5 226 22.7
2007-06-11 11:42:00 51°13.131 2°31.074 268.5 0.5 220 22.3
2007-06-11 11:43:00 51°13.124 2°31.066 269.3 0.5 221 22.7
2007-06-11 11:44:00 51°13.117 2°31.057 269.9 0.5 222 22.8
2007-06-11 11:45:00 51°13.11 2°31.048 270.8 0.5 220 22.1
2007-06-11 11:46:00 51°13.104 2°31.038 272.1 0.6 217 22.4
2007-06-11 11:47:00 51°13.098 2°31.021 277.7 1.4 262 22.4
2007-06-11 11:48:00 51°13.118 2°30.964 331 3.2 326 22.2
2007-06-11 11:49:00 51°13.167 2°30.956 20.7 2.5 11 22
2007-06-11 11:50:00 51°13.196 2°30.971 33.4 1 26 20.5
2007-06-11 11:51:00 51°13.201 2°30.977 54.7 0.3 69 20.9
2007-06-11 11:52:00 51°13.201 2°30.985 70.2 0.3 106 21.3
2007-06-11 11:53:00 51°13.2 2°30.993 78.6 0.3 80 21.6
2007-06-11 11:54:00 51°13.197 2°31.002 77.6 0.4 112 21.1
2007-06-11 11:55:01 51°13.194 2°31.01 73.9 0.3 115 21.1
2007-06-11 11:56:01 51°13.191 2°31.015 71 0.2 128 21.2
2007-06-11 11:57:01 51°13.188 2°31.019 69.2 0.2 140 21.3
2007-06-11 11:58:01 51°13.185 2°31.023 68.3 0.2 157 21.5
2007-06-11 11:59:01 51°13.182 2°31.025 68.6 0.2 143 22.1
2007-06-11 12:00:01 51°13.179 2°31.027 68.1 0.2 150 22.1
2007-06-11 12:01:01 51°13.176 2°31.029 67.7 0.2 162 21.7
2007-06-11 12:02:01 51°13.173 2°31.031 67.1 0.2 165 21.6
2007-06-11 12:03:01 51°13.17 2°31.031 66 0.2 177 21.5
2007-06-11 12:04:01 51°13.167 2°31.031 66 0.2 180 22.4
2007-06-11 12:05:01 51°13.163 2°31.031 66 0.2 187 22
2007-06-11 12:06:01 51°13.159 2°31.029 66.7 0.2 204 21.5
2007-06-11 12:07:01 51°13.164 2°31.052 66.4 2.3 67 21.6
2007-06-11 12:08:01 51°13.186 2°31.128 66.7 3.5 65 22.3
2007-06-11 12:09:01 51°13.209 2°31.205 64.2 2.7 62 22.3
2007-06-11 12:10:01 51°13.226 2°31.253 55.5 1.7 58 22.8
2007-06-11 12:11:01 51°13.24 2°31.283 51.5 1.2 53 22.9
2007-06-11 12:12:01 51°13.249 2°31.301 48.1 0.7 54 23.2
2007-06-11 12:13:01 51°13.254 2°31.312 46.8 0.3 54 23.1
2007-06-11 12:14:01 51°13.256 2°31.317 45 0.2 67 23.2
2007-06-11 12:15:01 51°13.255 2°31.32 44.9 0.1 131 23.3
2007-06-11 12:16:01 51°13.254 2°31.32 45 0.2 194 23.1
2007-06-11 12:17:01 51°13.25 2°31.318 47.5 0.3 199 22.8
2007-06-11 12:18:01 51°13.245 2°31.314 49.6 0.4 201 23.2
2007-06-11 12:19:01 51°13.238 2°31.31 52.2 0.5 204 22.9
2007-06-11 12:20:01 51°13.244 2°31.328 52.5 2.5 52 22.9
2007-06-11 12:21:01 51°13.278 2°31.387 46.5 2.5 45 22.8
2007-06-11 12:22:01 51°13.303 2°31.419 39 1.6 35 22.9
2007-06-11 12:23:01 51°13.32 2°31.436 35.7 1 35 23.2
2007-06-11 12:24:01 51°13.331 2°31.445 33.4 0.5 27 23
2007-06-11 12:25:01 51°13.336 2°31.447 33.8 0.2 358 23.4
2007-06-11 12:26:01 51°13.338 2°31.448 36 0.1 324 23.4
2007-06-11 12:27:01 51°13.337 2°31.447 39.7 0.1 230 23.4
2007-06-11 12:28:01 51°13.335 2°31.444 43.2 0.2 220 23.2
2007-06-11 12:29:01 51°13.333 2°31.438 47.3 0.3 248 22.8
2007-06-11 12:30:01 51°13.331 2°31.43 47.5 0.4 251 22.7
2007-06-11 12:31:01 51°13.328 2°31.421 50.9 0.3 263 22.8
2007-06-11 12:32:01 51°13.336 2°31.445 74 2.9 74 23
2007-06-11 12:33:01 51°13.33 2°31.592 92.7 8.6 86 24.5
2007-06-11 12:34:01 51°13.391 2°31.863 73.5 12.3 69 24.4
2007-06-11 12:35:01 51°13.463 2°32.172 74.9 12.4 71 24.5
2007-06-11 12:36:01 51°13.528 2°32.484 77.2 12.4 73 24.3
2007-06-11 12:37:01 51°13.588 2°32.8 77.2 12.5 73 24.1
2007-06-11 12:38:01 51°13.647 2°33.118 77.6 12.5 74 23.2
2007-06-11 12:39:01 51°13.706 2°33.433 76.8 12.4 73 22.6
2007-06-11 12:40:01 51°13.765 2°33.749 77.1 12.4 74 22.2
2007-06-11 12:41:01 51°13.824 2°34.066 77.3 12.5 75 22
2007-06-11 12:42:01 51°13.876 2°34.384 79.5 12.4 76 21.9
2007-06-11 12:43:01 51°13.924 2°34.704 81 12.5 80 19.7
2007-06-11 12:44:01 51°13.956 2°35.03 82.8 12.4 81 15
2007-06-11 12:45:01 51°13.99 2°35.352 83.7 12.4 80 13.2
2007-06-11 12:46:01 51°14.024 2°35.675 83.7 12.3 80 12
2007-06-11 12:47:01 51°14.058 2°35.997 83.7 12.3 81 13
2007-06-11 12:48:01 51°14.092 2°36.319 83.4 12.3 80 12.6
2007-06-11 12:49:01 51°14.124 2°36.64 83.6 12.2 80 13.1
2007-06-11 12:50:01 51°14.15 2°36.96 85.6 12.1 83 13.8
2007-06-11 12:51:01 51°14.17 2°37.281 87.8 12 87 14.8
2007-06-11 12:52:01 51°14.184 2°37.601 87.6 12.1 86 17
2007-06-11 12:53:01 51°14.203 2°37.922 87.3 12.2 84 18.7
2007-06-11 12:54:01 51°14.223 2°38.246 87.1 12.3 85 17.9
2007-06-11 12:55:01 51°14.242 2°38.569 87.8 12.2 85 16
2007-06-11 12:56:01 51°14.262 2°38.89 86.6 12.2 84 13.9
2007-06-11 12:57:01 51°14.282 2°39.209 87.1 12.2 84 12.7
2007-06-11 12:58:01 51°14.302 2°39.532 87.1 12.3 85 12.7
2007-06-11 12:59:01 51°14.322 2°39.856 87.5 12.3 84 12.8
2007-06-11 13:00:01 51°14.343 2°40.179 87.1 12.2 84 11.8
2007-06-11 13:01:01 51°14.366 2°40.503 87.5 12.3 84 12.9
2007-06-11 13:02:01 51°14.386 2°40.826 87.8 12.2 85 13.1
2007-06-11 13:03:01 51°14.406 2°41.149 87.4 12.3 84 14.3
2007-06-11 13:04:01 51°14.426 2°41.472 87.9 12.2 85 12.9
2007-06-11 13:05:01 51°14.445 2°41.795 87.4 12.3 84 14.2
2007-06-11 13:06:01 51°14.463 2°42.119 87.2 12.3 85 15.8
2007-06-11 13:07:01 51°14.475 2°42.444 89.1 12.3 87 16.9
2007-06-11 13:08:01 51°14.486 2°42.769 88.7 12.2 86 17
2007-06-11 13:09:01 51°14.496 2°43.092 89.3 12.2 87 16.9
2007-06-11 13:10:01 51°14.505 2°43.416 89.8 12.3 88 16.2
2007-06-11 13:11:01 51°14.514 2°43.738 89.5 12.1 89 15.9
2007-06-11 13:12:01 51°14.52 2°44.06 89.2 12.1 88 15.1
2007-06-11 13:13:01 51°14.529 2°44.38 89.4 12.1 87 13.8
2007-06-11 13:14:01 51°14.54 2°44.701 89.3 12.1 87 12.5
2007-06-11 13:15:01 51°14.552 2°45.018 89.2 11.9 86 10.8
2007-06-11 13:16:01 51°14.566 2°45.333 88.5 11.9 86 9.2
2007-06-11 13:17:01 51°14.58 2°45.644 88.9 11.7 87 7.9
2007-06-11 13:18:01 51°14.587 2°45.958 89.2 12 86 8.4
2007-06-11 13:19:01 51°14.596 2°46.28 90.4 12.2 88 10.8
2007-06-11 13:20:01 51°14.606 2°46.6 89.5 12.1 87 12.3
2007-06-11 13:21:01 51°14.615 2°46.92 89.3 12.1 88 12.3
2007-06-11 13:22:01 51°14.624 2°47.239 89.2 12.1 87 11.8
2007-06-11 13:23:01 51°14.634 2°47.557 89 12 88 10.9
2007-06-11 13:24:01 51°14.644 2°47.873 88.6 12 86 10.4
2007-06-11 13:25:01 51°14.654 2°48.191 90 12 88 11
2007-06-11 13:26:01 51°14.661 2°48.51 89.7 12.1 88 11.5
2007-06-11 13:27:01 51°14.67 2°48.83 89.2 12.1 87 11.7
2007-06-11 13:28:01 51°14.678 2°49.15 89.2 12.1 88 11.6
2007-06-11 13:29:01 51°14.687 2°49.47 89.3 12.1 87 11.6
2007-06-11 13:30:01 51°14.696 2°49.789 89.4 12 88 11.5
2007-06-11 13:31:01 51°14.703 2°50.108 89.3 12 88 11.3
2007-06-11 13:32:01 51°14.711 2°50.426 89 12.1 87 11
2007-06-11 13:33:01 51°14.719 2°50.746 89.5 12.1 89 10.8
2007-06-11 13:34:01 51°14.726 2°51.066 88.5 12.1 87 10.3
2007-06-11 13:35:01 51°14.733 2°51.384 89.1 12 88 9.9
2007-06-11 13:36:01 51°14.74 2°51.702 89.2 12.1 88 9.5
2007-06-11 13:37:01 51°14.746 2°52.02 89.2 11.9 87 9.2
2007-06-11 13:38:01 51°14.749 2°52.337 89.7 11.9 89 8.9
2007-06-11 13:39:00 51°14.753 2°52.649 91.5 11.9 91 8.7
2007-06-11 13:40:00 51°14.748 2°52.969 92.7 12.2 93 8.5
2007-06-11 13:41:01 51°14.733 2°53.288 95 11.8 94 8.6
2007-06-11 13:42:01 51°14.711 2°53.604 99.9 12 100 9.8
2007-06-11 13:43:01 51°14.668 2°53.915 104.3 12.1 105 10.4
2007-06-11 13:44:01 51°14.618 2°54.227 103.4 12.1 106 10.6
2007-06-11 13:45:01 51°14.542 2°54.526 112.9 12.2 115 10
2007-06-11 13:46:01 51°14.451 2°54.815 116.8 12.1 118 10.2
2007-06-11 13:47:01 51°14.346 2°55.093 122.8 12.3 124 10.1
2007-06-11 13:48:01 51°14.219 2°55.327 140.8 10.6 142 10.4
2007-06-11 13:49:01 51°14.084 2°55.442 156.7 8.2 154 9.8
2007-06-11 13:50:01 51°13.968 2°55.529 157.3 6.9 154 10.4
2007-06-11 13:51:05 51°13.856 2°55.612 157.5 7.1 155 10.4
2007-06-11 13:52:05 51°13.762 2°55.704 140.2 5.7 140 -999
2007-06-11 13:53:05 51°13.706 2°55.798 132.2 4.5 131 -999
2007-06-11 13:54:05 51°13.662 2°55.885 128 4 127 -999
2007-06-11 13:55:05 51°13.629 2°55.967 123.1 3.5 121 -999
2007-06-11 13:56:05 51°13.608 2°56.041 108.1 2.7 108 -999
2007-06-11 13:57:05 51°13.6 2°56.087 115.1 1 109 -999
2007-06-11 13:58:05 51°13.597 2°56.093 120.9 0.2 110 -999